• Join FlightAware (Why Join?)
  • Login
  • US Flag 
12:16AM EDT


 

Airport Tracker/Info


-or-


 

Live Flight TrackerFlight Track Log ✈ N3840U ✈ 13-Jul-2014 ✈ KDTS - KGAD

Flight Track Log - Related Links

Times and Time Zones

All times are in EDT time to prevent confusion due to time zone crossing. See the N3840U flight status page for this flight to view local times or setup timezone preferences in your user account.

Time Position Orientation Groundspeed Altitude Reporting Facility
EDT Latitude Longitude Course Direction KTS MPH feet Rate Location/Type
08:18PM 30.6627 -86.4339 North  Level FlightAware Approximate
08:19PM 30.7004 -86.4333 North  Level FlightAware Approximate
08:20PM 30.7381 -86.4328 North  Level FlightAware Approximate
08:21PM 30.7757 -86.4286 North  Level FlightAware Approximate
08:22PM 30.8132 -86.4245 North  Level FlightAware Approximate
08:23PM 30.8508 -86.4203 North  Level FlightAware Approximate
08:24PM 30.8884 -86.4161 North  Level FlightAware Approximate
08:25PM 30.9259 -86.4120 North  Level FlightAware Approximate
08:26PM 30.9635 -86.4078 North  Level FlightAware Approximate
08:26PM 30.8489 -86.3961 North 163 188 9,000  Level Jacksonville Center
08:27PM 31.0011 -86.4036 North  Level FlightAware Approximate
08:27PM 30.8800 -86.3975 358° North 165 190 9,000  Level Jacksonville Center
08:28PM 31.0387 -86.3994 North  Level FlightAware Approximate
08:28PM 30.9261 -86.3894 North 165 190 9,000  Level Jacksonville Center
08:29PM 31.0762 -86.3950 North  Level FlightAware Approximate
08:29PM 30.9744 -86.3839 North 166 191 9,000  Level Jacksonville Center
08:30PM 31.1138 -86.3906 North  Level FlightAware Approximate
08:30PM 31.0206 -86.3808 North 168 193 9,000  Level Jacksonville Center
08:31PM 31.1513 -86.3862 North  Level FlightAware Approximate
08:31PM 31.0664 -86.3753 North 167 192 9,000  Level Jacksonville Center
08:32PM 31.1125 -86.3719 North 165 190 9,000  Level Jacksonville Center
08:33PM 31.1586 -86.3664 North 167 192 9,000  Level Jacksonville Center
08:34PM 31.2047 -86.3633 North 166 191 9,000  Level Jacksonville Center
08:35PM 31.2506 -86.3603 North 164 189 9,000  Level Jacksonville Center
08:36PM 31.3050 -86.3525 North 166 191 9,000  Level Jacksonville Center
08:37PM 31.3533 -86.3494 North 163 188 9,000  Level Jacksonville Center
08:38PM 31.3972 -86.3436 North 164 189 9,000  Level Jacksonville Center
08:39PM 31.4411 -86.3406 North 163 188 9,000  Level Jacksonville Center
08:40PM 31.4831 -86.3372 North 162 186 9,000  Level Jacksonville Center
08:41PM 31.5311 -86.3317 North 165 190 9,000  Level Jacksonville Center
08:42PM 31.5731 -86.3283 North 166 191 9,000  Level Jacksonville Center
08:43PM 31.6211 -86.3253 North 165 190 9,000  Level Jacksonville Center
08:44PM 31.6631 -86.3194 North 161 185 9,000  Level Jacksonville Center
08:45PM 31.7111 -86.3164 North 160 184 9,000  Level Jacksonville Center
08:46PM 31.7550 -86.3131 North 162 186 9,000  Level Jacksonville Center
08:48PM 31.8300 -86.3169 357° North 163 188 9,000  Level Atlanta Center
08:52PM 32.0097 -86.2972 North 163 188 9,000  Level Atlanta Center
08:55PM 32.1731 -86.2792 North 165 190 9,000  Level Atlanta Center
08:58PM 32.3153 -86.2581 North 158 182 9,000  Level Atlanta Center
09:03PM 32.5119 -86.2336 North 162 186 9,000  Level Atlanta Center
09:07PM 32.6897 -86.2133 North 162 186 9,000  Level Atlanta Center
09:11PM 32.8672 -86.2053 North 160 184 9,000  Level Atlanta Center
09:11PM 32.8944 -86.2033 North 161 185 9,000  Level Atlanta Center
09:12PM 32.8398 -86.2016 North  Level Estimated
09:12PM 32.9406 -86.1972 North 161 185 9,000  Level Atlanta Center
09:13PM 32.9844 -86.1933 North 160 184 9,000  Level Atlanta Center
09:14PM 33.0261 -86.1894 North 159 183 9,000  Level Atlanta Center
09:15PM 33.0742 -86.1831 North 163 188 9,000  Level Atlanta Center
09:16PM 33.0177 -86.1819 North  Level Estimated
09:16PM 33.1181 -86.1792 North 164 189 9,000  Level Atlanta Center
09:17PM 33.1683 -86.1756 North 161 185 9,000  Level Atlanta Center
09:18PM 33.2122 -86.1692 North 162 186 9,000 -180 Level Atlanta Center
09:19PM 33.2583 -86.1653 North 165 190 8,700 -360 Descending Atlanta Center
09:20PM 33.3064 -86.1589 North 172 198 8,300 -480 Descending Atlanta Center
09:21PM 33.3567 -86.1553 North 172 198 7,700 -600 Descending Atlanta Center
09:22PM 33.4108 -86.1492 North 179 206 7,100 -660 Descending Atlanta Center
09:23PM 33.4611 -86.1453 North 181 208 6,400 -660 Descending Atlanta Center
09:25PM 33.5133 -86.1367 North 187 215 5,800 -600 Descending Atlanta Center
09:26PM 33.5636 -86.1328 North 181 208 5,200 -420 Descending Atlanta Center
09:27PM 33.6158 -86.1267 North 178 205 5,000 -120 Descending Atlanta Center
09:28PM 33.6578 -86.1228 North 163 188 5,000  Level Atlanta Center
09:29PM 33.7036 -86.1214 North 163 188 5,000  Level Atlanta Center
09:30PM 33.7517 -86.1150 North 159 183 5,000  Level Atlanta Center
09:31PM 33.7956 -86.1111 North 161 185 5,000  Level Atlanta Center
09:33PM 33.8679 -86.0945 11° North  Level FlightAware Approximate
09:40PM 33.9667 -86.0833 North  Level FlightAware Approximate
09:41PM 33.9726 -86.0891 220° Southwest  Level Estimated